Time;durP1;ratioP1;P1;durP2;ratioP2;P2;SDS_P1;SDS_P2;PMS_P1;PMS_P2;Temp;Humidity;BMP_temperature;BMP_pressure;BME280_temperature;BME280_humidity;BME280_pressure;Samples;Min_cycle;Max_cycle;Signal;HPM_P1;HPM_P2
2022/06/10 00:01:28;;;;;;;14.95;8.98;;;12.00;88.30;;;;;;4997954;28;20063;-42
2022/06/10 00:03:55;;;;;;;18.83;8.88;;;12.00;88.30;;;;;;5029056;28;20362;-42
2022/06/10 00:06:22;;;;;;;13.18;8.77;;;12.00;88.40;;;;;;5029761;28;20030;-41
2022/06/10 00:08:53;;;;;;;14.05;9.05;;;12.00;88.40;;;;;;5034122;28;20021;-41
2022/06/10 00:11:19;;;;;;;15.18;9.35;;;11.90;88.40;;;;;;5049371;28;20033;-41
2022/06/10 00:13:46;;;;;;;16.85;7.10;;;11.90;88.50;;;;;;5039386;28;20100;-41
2022/06/10 00:16:17;;;;;;;15.05;7.32;;;11.90;88.60;;;;;;5028507;28;20025;-41
2022/06/10 00:18:44;;;;;;;14.80;8.20;;;11.90;88.70;;;;;;5028468;28;20108;-41
2022/06/10 00:21:12;;;;;;;12.90;7.38;;;11.90;88.70;;;;;;5028266;28;20025;-42
2022/06/10 00:23:39;;;;;;;9.88;6.47;;;11.90;88.70;;;;;;5028770;28;20430;-41
2022/06/10 00:26:07;;;;;;;9.48;7.10;;;11.90;88.70;;;;;;5028064;28;20536;-41
2022/06/10 00:28:35;;;;;;;13.95;7.78;;;11.90;88.80;;;;;;5015830;28;20362;-41
2022/06/10 00:31:01;;;;;;;12.40;7.50;;;11.80;88.80;;;;;;5028693;28;20457;-41
2022/06/10 00:33:29;;;;;;;11.85;7.10;;;11.90;88.80;;;;;;5047181;28;20029;-41
2022/06/10 00:35:56;;;;;;;10.82;6.55;;;11.90;88.80;;;;;;5048617;28;20028;-42
2022/06/10 00:38:23;;;;;;;12.93;6.20;;;11.90;88.70;;;;;;5029314;28;20430;-41
2022/06/10 00:40:53;;;;;;;10.05;6.57;;;11.80;88.60;;;;;;5011359;28;20025;-42
2022/06/10 00:43:25;;;;;;;18.67;6.93;;;11.70;88.60;;;;;;5038035;28;20087;-41
2022/06/10 00:46:23;;;;;;;12.45;6.38;;;11.80;88.70;;;;;;5047251;28;20032;-42
2022/06/10 00:49:03;;;;;;;14.38;6.88;;;11.70;88.50;;;;;;5019845;28;20392;-41
2022/06/10 00:51:52;;;;;;;14.27;6.50;;;11.70;88.40;;;;;;5026249;28;20045;-43
2022/06/10 00:54:39;;;;;;;12.65;6.15;;;11.70;88.40;;;;;;5044088;28;20072;-42
2022/06/10 00:57:14;;;;;;;12.20;6.07;;;11.60;88.40;;;;;;5033855;28;20021;-40
2022/06/10 00:59:55;;;;;;;12.60;6.55;;;11.60;88.40;;;;;;5048179;28;20410;-41
2022/06/10 01:02:26;;;;;;;9.57;5.50;;;11.60;88.40;;;;;;5033730;28;20496;-43
2022/06/10 01:04:55;;;;;;;9.93;6.18;;;11.60;88.40;;;;;;5046511;28;20028;-41
2022/06/10 01:07:26;;;;;;;8.00;6.03;;;11.60;88.40;;;;;;5047285;28;20032;-41
2022/06/10 01:09:54;;;;;;;14.48;6.65;;;11.50;88.30;;;;;;5031429;28;20034;-44
2022/06/10 01:12:44;;;;;;;10.13;6.72;;;11.50;88.30;;;;;;5035149;28;20025;-41
2022/06/10 01:15:55;;;;;;;14.45;6.90;;;11.50;88.30;;;;;;5009368;28;20431;-41
2022/06/10 01:18:45;;;;;;;9.75;5.07;;;11.50;88.30;;;;;;5047019;28;20047;-42
2022/06/10 01:21:17;;;;;;;13.43;5.72;;;11.50;88.50;;;;;;5010146;28;20022;-41
2022/06/10 01:24:09;;;;;;;11.77;5.90;;;11.50;88.40;;;;;;5028468;28;20132;-44
2022/06/10 01:30:23;;;;;;;7.65;5.10;;;11.50;88.10;;;;;;5012745;28;20449;-41
2022/06/10 01:33:04;;;;;;;13.38;6.65;;;11.50;88.20;;;;;;5031562;28;20049;-41
2022/06/10 01:35:41;;;;;;;11.77;5.85;;;11.40;88.10;;;;;;5032304;28;20037;-41
2022/06/10 01:38:27;;;;;;;13.88;6.25;;;11.40;88.10;;;;;;5029602;28;20056;-41
2022/06/10 01:41:18;;;;;;;9.05;5.22;;;11.40;88.00;;;;;;5046102;28;20036;-42
2022/06/10 01:44:05;;;;;;;10.73;5.22;;;11.40;88.00;;;;;;5032199;28;20028;-42
2022/06/10 01:46:53;;;;;;;8.70;5.53;;;11.40;88.00;;;;;;5026186;28;20048;-44
2022/06/10 01:49:40;;;;;;;15.93;5.72;;;11.40;87.90;;;;;;4999394;28;20167;-42
2022/06/10 01:52:41;;;;;;;13.18;5.82;;;11.40;87.90;;;;;;5034051;28;20468;-42
2022/06/10 01:55:38;;;;;;;13.85;5.05;;;11.40;87.90;;;;;;5043778;28;20437;-42
2022/06/10 01:58:18;;;;;;;9.48;5.00;;;11.40;87.80;;;;;;5043830;28;20049;-41
2022/06/10 02:00:50;;;;;;;12.45;5.22;;;11.30;87.90;;;;;;5048272;28;20052;-43
2022/06/10 02:03:38;;;;;;;14.23;6.03;;;11.30;87.90;;;;;;5015849;28;20075;-41
2022/06/10 02:06:07;;;;;;;10.38;5.75;;;11.30;87.90;;;;;;5012603;28;20101;-42
2022/06/10 02:08:40;;;;;;;11.07;5.90;;;11.30;87.80;;;;;;5031663;28;20064;-42
2022/06/10 02:11:26;;;;;;;12.20;5.70;;;11.30;87.80;;;;;;5013647;28;20025;-41
2022/06/10 02:14:08;;;;;;;10.98;5.75;;;11.30;87.70;;;;;;5043553;28;20044;-41
2022/06/10 02:16:41;;;;;;;14.48;6.50;;;11.30;87.80;;;;;;5024655;28;20043;-42
2022/06/10 02:19:36;;;;;;;10.77;5.35;;;11.20;87.70;;;;;;5017852;28;20029;-41
2022/06/10 02:22:31;;;;;;;13.10;5.35;;;11.20;87.60;;;;;;5039897;28;20467;-42
2022/06/10 02:25:05;;;;;;;11.48;4.70;;;11.20;87.60;;;;;;5051429;28;20106;-42
2022/06/10 02:27:37;;;;;;;10.85;5.80;;;11.20;87.50;;;;;;5047179;28;20044;-42
2022/06/10 02:30:28;;;;;;;10.45;5.05;;;11.10;87.50;;;;;;5031202;28;20029;-42
2022/06/10 02:32:57;;;;;;;10.68;5.57;;;11.10;87.50;;;;;;5030804;28;20026;-44
2022/06/10 02:35:27;;;;;;;12.40;5.50;;;11.10;87.60;;;;;;5046932;28;20029;-42
2022/06/10 02:38:12;;;;;;;;;;;11.10;87.60;;;;;;5030491;28;20051;-41
2022/06/10 02:41:04;;;;;;;12.05;5.00;;;11.10;87.80;;;;;;5031752;28;19905;-42
2022/06/10 02:43:40;;;;;;;9.13;4.88;;;11.10;87.60;;;;;;5047247;28;20025;-42
2022/06/10 02:46:11;;;;;;;11.95;5.28;;;11.00;87.50;;;;;;5013612;28;20049;-41
2022/06/10 02:49:02;;;;;;;13.75;5.32;;;11.00;87.40;;;;;;5030811;28;20036;-42
2022/06/10 02:51:29;;;;;;;7.00;5.10;;;11.00;87.50;;;;;;5013564;28;20033;-42
2022/06/10 02:53:57;;;;;;;8.52;5.03;;;11.00;87.50;;;;;;5046534;28;20036;-41
2022/06/10 02:56:27;;;;;;;13.75;5.57;;;11.00;87.40;;;;;;5034169;28;20036;-41
2022/06/10 03:02:07;;;;;;;8.00;4.97;;;10.90;87.30;;;;;;5051064;28;20383;-43
2022/06/10 03:04:48;;;;;;;11.63;5.07;;;10.90;87.30;;;;;;5039136;28;20028;-41
2022/06/10 03:07:54;;;;;;;14.35;5.25;;;10.90;87.30;;;;;;5046256;28;20017;-41
2022/06/10 03:10:37;;;;;;;16.27;6.18;;;10.90;87.40;;;;;;5004612;28;20094;-42
2022/06/10 03:13:30;;;;;;;12.80;5.70;;;11.00;87.50;;;;;;5033101;28;20051;-41
2022/06/10 03:16:30;;;;;;;5.70;4.05;;;10.90;87.40;;;;;;4994903;28;20030;-42
2022/06/10 03:19:33;;;;;;;9.73;5.28;;;11.00;87.20;;;;;;5030038;28;20061;-42
2022/06/10 03:22:35;;;;;;;16.75;5.47;;;11.00;87.20;;;;;;5030065;28;20086;-42
2022/06/10 03:25:26;;;;;;;10.25;4.57;;;10.90;87.10;;;;;;5044734;28;20129;-41
2022/06/10 03:28:16;;;;;;;8.38;4.47;;;10.90;87.20;;;;;;5029957;28;20049;-42
2022/06/10 03:30:53;;;;;;;8.95;5.38;;;10.90;87.00;;;;;;5012752;28;20167;-43
2022/06/10 03:34:06;;;;;;;12.88;4.85;;;10.90;87.20;;;;;;5012828;28;20036;-42
2022/06/10 03:36:36;;;;;;;8.38;5.10;;;10.90;87.10;;;;;;5029613;28;20344;-44
2022/06/10 03:39:05;;;;;;;;;;;10.90;87.10;;;;;;5029916;28;20026;-44
2022/06/10 03:41:35;;;;;;;16.65;5.25;;;11.00;86.90;;;;;;5049736;28;19923;-41
2022/06/10 03:44:06;;;;;;;6.47;4.60;;;11.00;87.00;;;;;;5046586;28;20025;-41
2022/06/10 03:46:34;;;;;;;10.55;4.78;;;11.00;86.90;;;;;;5015620;28;20116;-42
2022/06/10 03:49:07;;;;;;;8.88;4.80;;;11.00;86.80;;;;;;5028689;28;20035;-41
2022/06/10 03:51:34;;;;;;;10.52;4.93;;;11.00;86.90;;;;;;5045060;28;20038;-41
2022/06/10 03:54:01;;;;;;;8.27;4.32;;;11.10;86.80;;;;;;5029082;28;20104;-42
2022/06/10 03:56:27;;;;;;;10.73;4.72;;;11.10;86.70;;;;;;5029041;28;20741;-42
2022/06/10 03:58:56;;;;;;;15.10;4.65;;;11.10;86.70;;;;;;5011984;28;20508;-42
2022/06/10 04:01:23;;;;;;;12.55;5.07;;;11.10;86.80;;;;;;5036876;28;20044;-41
2022/06/10 04:03:49;;;;;;;7.70;4.53;;;11.10;86.70;;;;;;5049290;28;20025;-42
2022/06/10 04:06:17;;;;;;;8.30;4.53;;;11.10;86.80;;;;;;5013757;28;20022;-41
2022/06/10 04:08:47;;;;;;;9.25;4.38;;;11.20;86.70;;;;;;5029110;28;20075;-42
2022/06/10 04:11:14;;;;;;;7.95;4.80;;;11.20;86.60;;;;;;5043594;28;20022;-42
2022/06/10 04:13:40;;;;;;;12.45;4.75;;;11.20;86.40;;;;;;5043739;28;20350;-41
2022/06/10 04:16:07;;;;;;;5.38;3.42;;;11.30;86.70;;;;;;5046816;28;20017;-44
2022/06/10 04:18:32;;;;;;;7.57;4.40;;;11.30;86.80;;;;;;5030475;28;20033;-43
2022/06/10 04:20:59;;;;;;;8.75;3.92;;;11.40;86.70;;;;;;5049260;28;20033;-43
2022/06/10 04:23:26;;;;;;;10.27;4.38;;;11.40;86.50;;;;;;5036009;28;20039;-42
2022/06/10 04:25:53;;;;;;;10.63;4.32;;;11.40;86.50;;;;;;5031211;28;20021;-42
2022/06/10 04:28:20;;;;;;;7.05;3.90;;;11.40;86.50;;;;;;5038393;28;20062;-42
2022/06/10 04:30:49;;;;;;;8.35;4.50;;;11.40;86.60;;;;;;5011736;28;20063;-42
2022/06/10 04:33:16;;;;;;;8.50;3.53;;;11.60;86.50;;;;;;5029433;28;20028;-41
2022/06/10 04:35:44;;;;;;;10.98;4.88;;;11.60;86.40;;;;;;5028530;28;20041;-43
2022/06/10 04:38:13;;;;;;;11.13;4.40;;;11.70;86.20;;;;;;5029299;28;20060;-42
2022/06/10 04:40:41;;;;;;;9.95;4.95;;;11.80;86.20;;;;;;5043523;28;20373;-41
2022/06/10 04:43:09;;;;;;;11.70;4.05;;;11.90;85.90;;;;;;5028592;28;20033;-42
2022/06/10 04:45:45;;;;;;;9.13;4.68;;;12.00;85.80;;;;;;5035055;28;20103;-42
2022/06/10 04:48:18;;;;;;;12.50;4.82;;;12.10;85.60;;;;;;5028952;28;20033;-42
2022/06/10 04:50:48;;;;;;;6.90;4.25;;;12.10;85.30;;;;;;5013657;28;20469;-42
2022/06/10 04:53:15;;;;;;;7.80;4.25;;;12.20;85.10;;;;;;5028922;28;20048;-41
2022/06/10 04:55:42;;;;;;;8.32;3.70;;;12.30;85.10;;;;;;5046847;28;20068;-43
2022/06/10 04:58:12;;;;;;;9.18;4.00;;;12.30;85.00;;;;;;5048906;28;20091;-41
2022/06/10 05:00:43;;;;;;;11.23;4.93;;;12.40;84.90;;;;;;5036306;28;20033;-43
2022/06/10 05:03:10;;;;;;;10.13;5.35;;;12.40;84.80;;;;;;5013005;28;20355;-42
2022/06/10 05:05:38;;;;;;;10.20;3.80;;;12.50;84.90;;;;;;5037044;28;20542;-41
2022/06/10 05:08:06;;;;;;;9.32;4.03;;;12.60;85.10;;;;;;5034384;28;20036;-41
2022/06/10 05:10:34;;;;;;;11.13;4.43;;;12.60;85.00;;;;;;5030808;28;20133;-42
2022/06/10 05:13:04;;;;;;;11.32;4.25;;;12.70;85.10;;;;;;5014742;28;20440;-43
2022/06/10 05:15:32;;;;;;;;;;;12.80;85.20;;;;;;5032515;28;20732;-42
2022/06/10 05:17:59;;;;;;;10.35;3.88;;;12.90;85.20;;;;;;5030224;28;20002;-41
2022/06/10 05:20:37;;;;;;;12.93;4.03;;;12.90;85.20;;;;;;5030911;28;20026;-43
2022/06/10 05:23:04;;;;;;;9.30;4.47;;;13.10;84.90;;;;;;5030616;28;21423;-41
2022/06/10 05:25:32;;;;;;;10.75;4.25;;;13.20;85.00;;;;;;5030494;28;20087;-41
2022/06/10 05:27:59;;;;;;;9.32;4.20;;;13.30;84.70;;;;;;5030642;28;20100;-42
2022/06/10 05:30:30;;;;;;;11.13;4.25;;;13.40;84.70;;;;;;5031353;28;20080;-42
2022/06/10 05:32:57;;;;;;;10.50;4.22;;;13.40;84.20;;;;;;5031768;28;20145;-41
2022/06/10 05:35:25;;;;;;;11.80;4.13;;;13.50;84.20;;;;;;5031169;28;20036;-44
2022/06/10 05:37:53;;;;;;;11.23;3.58;;;13.70;83.80;;;;;;5031095;28;20335;-41
2022/06/10 05:40:23;;;;;;;9.43;4.03;;;13.90;83.50;;;;;;5031127;28;20036;-41
2022/06/10 05:42:50;;;;;;;8.95;3.72;;;14.20;83.50;;;;;;5030725;28;20036;-41
2022/06/10 05:45:18;;;;;;;10.02;3.78;;;14.60;82.10;;;;;;5029288;28;20346;-44
2022/06/10 05:47:48;;;;;;;11.35;3.75;;;15.10;81.70;;;;;;5017477;28;20440;-42
2022/06/10 05:50:20;;;;;;;;;;;15.50;80.30;;;;;;5030199;28;20478;-43
2022/06/10 05:52:48;;;;;;;8.13;3.50;;;15.80;78.80;;;;;;5031046;28;19947;-43
2022/06/10 05:55:16;;;;;;;7.05;3.50;;;16.00;78.10;;;;;;5014587;28;20044;-42
2022/06/10 05:57:43;;;;;;;16.08;3.83;;;16.30;77.80;;;;;;5009997;28;20031;-42
2022/06/10 06:00:21;;;;;;;8.75;3.53;;;16.50;76.50;;;;;;5044637;28;20098;-44
2022/06/10 06:02:48;;;;;;;11.63;4.00;;;16.40;76.10;;;;;;5028090;28;20463;-43
2022/06/10 06:05:16;;;;;;;6.43;2.50;;;16.50;75.20;;;;;;5012402;28;20366;-43
2022/06/10 06:07:44;;;;;;;10.10;3.60;;;16.50;76.20;;;;;;5029792;28;20053;-43
2022/06/10 06:10:17;;;;;;;12.33;3.37;;;16.60;76.50;;;;;;5012883;28;20033;-43
2022/06/10 06:12:46;;;;;;;9.75;3.78;;;16.90;74.80;;;;;;5030421;28;20038;-43
2022/06/10 06:15:18;;;;;;;12.00;3.63;;;17.20;74.80;;;;;;5030746;28;20033;-46
2022/06/10 06:17:47;;;;;;;11.27;2.88;;;17.50;73.50;;;;;;5029301;28;20121;-45
2022/06/10 06:20:14;;;;;;;9.25;3.13;;;17.70;72.40;;;;;;5014058;28;20025;-43
2022/06/10 06:22:41;;;;;;;8.13;2.97;;;17.70;73.20;;;;;;5029467;28;20119;-45
2022/06/10 06:25:15;;;;;;;8.77;2.72;;;17.60;73.70;;;;;;5030333;28;20511;-44
2022/06/10 06:27:46;;;;;;;11.25;3.28;;;17.90;73.60;;;;;;5028640;28;20017;-43
2022/06/10 06:30:31;;;;;;;10.40;2.47;;;17.80;71.80;;;;;;5028798;28;20339;-44
2022/06/10 06:33:03;;;;;;;10.07;2.90;;;17.70;72.60;;;;;;5028825;28;20130;-43
2022/06/10 06:35:34;;;;;;;12.60;2.90;;;17.50;72.20;;;;;;5029066;28;20460;-44
2022/06/10 06:38:03;;;;;;;9.73;3.17;;;17.40;72.60;;;;;;5012888;28;20072;-44
2022/06/10 06:40:31;;;;;;;9.95;2.90;;;17.40;73.40;;;;;;5012437;28;20469;-43
2022/06/10 06:43:00;;;;;;;12.38;2.60;;;17.40;73.80;;;;;;5031761;28;20037;-44
2022/06/10 06:45:30;;;;;;;7.38;2.83;;;17.40;74.60;;;;;;5030014;28;20029;-44
2022/06/10 06:47:57;;;;;;;11.35;3.65;;;17.40;73.90;;;;;;5012502;28;20029;-44
2022/06/10 06:50:27;;;;;;;10.20;3.55;;;17.40;73.20;;;;;;5047243;28;20057;-43
2022/06/10 06:52:57;;;;;;;12.77;3.28;;;17.50;73.90;;;;;;5030246;28;20039;-44
2022/06/10 06:55:24;;;;;;;;;;;17.70;74.30;;;;;;5032452;28;20414;-44
2022/06/10 06:57:51;;;;;;;8.80;2.92;;;17.80;72.90;;;;;;5044719;28;19908;-44
2022/06/10 07:00:18;;;;;;;7.80;2.75;;;17.90;73.00;;;;;;5016524;28;20048;-44
2022/06/10 07:02:46;;;;;;;9.38;2.80;;;18.10;71.90;;;;;;5011768;28;20057;-46
2022/06/10 07:05:12;;;;;;;14.52;4.30;;;18.10;71.40;;;;;;5034401;28;20148;-44
2022/06/10 07:07:44;;;;;;;9.65;3.38;;;18.00;71.70;;;;;;5028281;28;20029;-45
2022/06/10 07:10:13;;;;;;;9.43;2.20;;;18.20;71.80;;;;;;5030593;28;20191;-44
2022/06/10 07:12:40;;;;;;;;;;;18.40;72.80;;;;;;5030138;28;20034;-45
2022/06/10 07:15:11;;;;;;;15.13;2.72;;;18.90;69.90;;;;;;5039016;28;19905;-44
2022/06/10 07:17:37;;;;;;;10.32;2.85;;;19.20;68.10;;;;;;5026116;28;20041;-44
2022/06/10 07:20:06;;;;;;;10.73;3.35;;;19.50;66.90;;;;;;5029635;28;20369;-44
2022/06/10 07:22:33;;;;;;;13.32;3.45;;;20.30;66.70;;;;;;5030372;28;20046;-46
2022/06/10 07:25:00;;;;;;;7.82;2.92;;;20.80;62.60;;;;;;5031015;28;20034;-44
2022/06/10 07:27:27;;;;;;;9.55;2.92;;;20.90;61.00;;;;;;5030163;28;20353;-45
2022/06/10 07:29:54;;;;;;;9.93;2.40;;;20.90;62.60;;;;;;5029214;28;20044;-46
2022/06/10 07:32:21;;;;;;;7.85;2.58;;;21.00;61.30;;;;;;5012609;28;20026;-45
2022/06/10 07:34:48;;;;;;;8.88;3.20;;;21.20;60.10;;;;;;5010849;28;20513;-45
2022/06/10 07:37:14;;;;;;;7.78;2.67;;;21.40;60.90;;;;;;5025266;28;20873;-44
2022/06/10 07:39:41;;;;;;;10.55;3.40;;;21.70;58.90;;;;;;5030501;28;20032;-45
2022/06/10 07:42:10;;;;;;;7.63;2.92;;;21.90;57.30;;;;;;5036327;28;20061;-44
2022/06/10 07:44:38;;;;;;;12.48;2.95;;;22.10;56.90;;;;;;5044056;28;20039;-44
2022/06/10 07:47:08;;;;;;;9.10;2.38;;;22.00;57.10;;;;;;5036619;28;20079;-48
2022/06/10 07:49:36;;;;;;;10.52;2.33;;;22.10;57.60;;;;;;5016165;28;20026;-46
2022/06/10 07:52:04;;;;;;;11.70;2.88;;;22.60;55.60;;;;;;5029219;28;20044;-45
2022/06/10 07:54:33;;;;;;;13.43;3.00;;;23.30;56.30;;;;;;5028982;28;20033;-45
2022/06/10 07:57:01;;;;;;;;;;;23.50;55.50;;;;;;5028996;28;20033;-45
2022/06/10 07:59:27;;;;;;;7.72;2.17;;;23.30;53.20;;;;;;5029147;28;19916;-47
2022/06/10 08:01:54;;;;;;;11.25;2.75;;;23.00;53.90;;;;;;5037479;28;20045;-44
2022/06/10 08:04:20;;;;;;;11.38;3.10;;;22.80;55.20;;;;;;5031652;28;20083;-45
2022/06/10 08:06:46;;;;;;;7.90;2.63;;;22.50;54.50;;;;;;5039360;28;20034;-46
2022/06/10 08:09:17;;;;;;;8.68;2.40;;;22.40;56.30;;;;;;5029179;28;20018;-45
2022/06/10 08:11:43;;;;;;;11.93;2.75;;;22.60;55.90;;;;;;5035081;28;20044;-46
2022/06/10 08:14:11;;;;;;;12.45;3.20;;;22.40;57.20;;;;;;5028805;28;20334;-45
2022/06/10 08:16:39;;;;;;;8.83;2.77;;;21.90;56.20;;;;;;5027697;28;20037;-45
2022/06/10 08:19:06;;;;;;;11.15;2.67;;;21.70;58.80;;;;;;5014121;28;20025;-44
2022/06/10 08:24:20;;;;;;;10.70;2.45;;;21.40;58.50;;;;;;5027369;28;20056;-44
2022/06/10 08:26:48;;;;;;;7.85;2.10;;;21.20;60.20;;;;;;5025573;28;20021;-45
2022/06/10 08:29:16;;;;;;;7.63;1.98;;;21.10;58.60;;;;;;5012908;28;20032;-47
2022/06/10 08:31:42;;;;;;;5.80;1.77;;;21.00;58.80;;;;;;5010524;28;20025;-45
2022/06/10 08:34:09;;;;;;;8.32;2.30;;;21.20;59.20;;;;;;5027272;28;20037;-44
2022/06/10 08:36:37;;;;;;;8.27;2.65;;;21.30;58.20;;;;;;5009000;28;20421;-44
2022/06/10 08:39:04;;;;;;;12.02;2.63;;;21.20;58.00;;;;;;5028126;28;20030;-44
2022/06/10 08:41:56;;;;;;;7.82;1.73;;;21.10;58.50;;;;;;5030572;28;20029;-45
2022/06/10 08:44:41;;;;;;;8.50;2.50;;;21.10;60.40;;;;;;5021792;28;20034;-47
2022/06/10 08:47:43;;;;;;;6.05;2.00;;;21.30;59.80;;;;;;5011117;28;20140;-44
2022/06/10 08:50:42;;;;;;;7.47;2.58;;;21.30;59.30;;;;;;4964924;28;20035;-43
2022/06/10 08:53:33;;;;;;;7.03;2.10;;;21.20;59.90;;;;;;4967863;28;20097;-43
2022/06/10 08:56:31;;;;;;;7.75;2.05;;;21.20;61.30;;;;;;4967763;28;20042;-43
2022/06/10 08:59:38;;;;;;;7.15;2.67;;;21.30;60.70;;;;;;4956231;28;20054;-46
2022/06/10 09:02:05;;;;;;;8.15;2.88;;;21.20;61.20;;;;;;4962783;28;20065;-45
2022/06/10 09:04:57;;;;;;;6.18;2.92;;;21.10;61.80;;;;;;4965353;28;20041;-47
2022/06/10 09:07:29;;;;;;;6.57;2.45;;;21.30;61.20;;;;;;4948534;28;20027;-45
2022/06/10 09:09:58;;;;;;;7.85;2.40;;;21.40;61.50;;;;;;4965051;28;20031;-46
2022/06/10 09:12:49;;;;;;;;;;;21.40;62.60;;;;;;4964303;28;20399;-44
2022/06/10 09:15:18;;;;;;;6.65;2.30;;;21.40;61.70;;;;;;4965526;28;19918;-45
2022/06/10 09:17:53;;;;;;;10.73;2.20;;;21.40;61.60;;;;;;4949987;28;21798;-45
2022/06/10 09:20:27;;;;;;;7.90;2.50;;;21.10;61.90;;;;;;4966093;28;20742;-45
2022/06/10 09:23:27;;;;;;;8.05;2.45;;;21.40;62.70;;;;;;4974403;28;20034;-45
2022/06/10 09:25:59;;;;;;;5.95;1.70;;;21.60;63.10;;;;;;5047649;28;20040;-45
2022/06/10 09:28:25;;;;;;;10.18;2.72;;;21.60;62.00;;;;;;5022857;28;20124;-44
2022/06/10 09:31:29;;;;;;;7.15;2.20;;;21.50;61.80;;;;;;5043275;28;20021;-44
2022/06/10 09:34:26;;;;;;;6.85;2.03;;;21.40;62.60;;;;;;5037888;28;20037;-44
2022/06/10 09:37:00;;;;;;;14.52;3.22;;;21.20;62.90;;;;;;5011570;28;20072;-44
2022/06/10 09:42:54;;;;;;;8.88;2.97;;;21.00;65.10;;;;;;5006441;28;20483;-45
2022/06/10 09:46:07;;;;;;;8.25;2.20;;;22.00;65.20;;;;;;5008588;28;20029;-45
2022/06/10 09:48:54;;;;;;;5.20;1.95;;;22.80;61.30;;;;;;5006697;28;20044;-45
2022/06/10 09:51:28;;;;;;;9.05;2.63;;;22.50;60.80;;;;;;5024188;28;20022;-45
2022/06/10 09:54:23;;;;;;;7.90;2.05;;;22.40;61.60;;;;;;5027537;28;20095;-45
2022/06/10 09:57:27;;;;;;;5.32;1.65;;;22.40;61.10;;;;;;4997591;28;20095;-45
2022/06/10 10:00:20;;;;;;;4.18;1.60;;;22.20;61.70;;;;;;5010874;28;20122;-45
2022/06/10 10:03:23;;;;;;;5.68;1.65;;;22.00;62.60;;;;;;4993750;28;20017;-44
2022/06/10 10:06:06;;;;;;;6.15;1.95;;;21.90;65.00;;;;;;5023433;28;20109;-45
2022/06/10 10:09:00;;;;;;;5.70;2.03;;;21.60;63.60;;;;;;5004620;28;20080;-44
2022/06/10 10:11:28;;;;;;;8.90;2.20;;;21.80;66.00;;;;;;5014195;28;20057;-45
2022/06/10 10:14:18;;;;;;;15.70;2.05;;;21.90;66.30;;;;;;5009406;28;20044;-46
2022/06/10 10:16:56;;;;;;;;;;;21.70;66.30;;;;;;5008785;28;20160;-47
2022/06/10 10:19:41;;;;;;;8.20;2.85;;;21.40;65.20;;;;;;5011139;28;19919;-46
2022/06/10 10:22:38;;;;;;;8.50;2.03;;;21.10;66.90;;;;;;5020473;28;20086;-46
2022/06/10 10:25:14;;;;;;;6.97;2.00;;;21.10;67.90;;;;;;5017405;28;20029;-46
2022/06/10 10:27:41;;;;;;;7.43;2.20;;;21.00;67.70;;;;;;4993731;28;20030;-50
2022/06/10 10:30:17;;;;;;;5.75;1.95;;;21.20;67.60;;;;;;4993618;28;20332;-45
2022/06/10 10:32:57;;;;;;;10.05;2.17;;;21.50;67.90;;;;;;5031068;28;20043;-45
2022/06/10 10:35:49;;;;;;;7.90;2.00;;;21.70;65.80;;;;;;4980466;28;20563;-45
2022/06/10 10:38:41;;;;;;;4.95;1.55;;;21.70;65.90;;;;;;5007633;28;20467;-45
2022/06/10 10:41:29;;;;;;;6.03;2.10;;;21.90;66.50;;;;;;5023946;28;20465;-45
2022/06/10 10:44:03;;;;;;;5.32;1.40;;;21.90;66.30;;;;;;5026145;28;20057;-46
2022/06/10 10:46:35;;;;;;;9.30;2.08;;;21.90;65.90;;;;;;5025377;28;20029;-47
2022/06/10 10:49:33;;;;;;;7.57;2.40;;;21.70;65.70;;;;;;5017090;28;20037;-45
2022/06/10 10:52:07;;;;;;;7.28;2.30;;;21.20;66.80;;;;;;5002355;28;20049;-45
2022/06/10 10:54:36;;;;;;;6.88;2.63;;;21.00;68.00;;;;;;4990929;28;20022;-47
2022/06/10 10:57:19;;;;;;;4.95;2.20;;;20.90;68.70;;;;;;5012333;28;20022;-47
2022/06/10 11:00:01;;;;;;;4.53;2.15;;;20.70;69.60;;;;;;4993497;28;20180;-45
2022/06/10 11:02:39;;;;;;;5.30;1.83;;;20.40;70.10;;;;;;4993402;28;20795;-45
2022/06/10 11:05:35;;;;;;;6.25;1.95;;;20.20;70.80;;;;;;5009492;28;20052;-45
2022/06/10 11:08:21;;;;;;;6.25;2.35;;;19.90;72.00;;;;;;5005033;28;20121;-45
2022/06/10 11:11:04;;;;;;;5.25;3.08;;;19.70;72.90;;;;;;5025705;28;20030;-44
2022/06/10 11:14:04;;;;;;;5.45;2.70;;;19.80;73.70;;;;;;5010391;28;20374;-46
2022/06/10 11:17:24;;;;;;;5.38;2.40;;;19.90;73.90;;;;;;4989800;28;20041;-46
2022/06/10 11:20:00;;;;;;;6.72;3.13;;;20.30;74.90;;;;;;4968863;28;20047;-45
2022/06/10 11:22:46;;;;;;;5.45;2.60;;;20.60;72.00;;;;;;4969095;28;20114;-46
2022/06/10 11:25:31;;;;;;;5.38;3.22;;;20.90;71.60;;;;;;4967988;28;20023;-46
2022/06/10 11:28:01;;;;;;;8.18;4.38;;;21.00;70.60;;;;;;4949873;28;20039;-45
2022/06/10 11:30:49;;;;;;;7.68;3.58;;;20.60;70.20;;;;;;4973862;28;20034;-46
2022/06/10 11:33:31;;;;;;;7.05;3.90;;;20.40;71.30;;;;;;4950097;28;20031;-44
2022/06/10 11:36:01;;;;;;;10.20;4.43;;;20.00;72.30;;;;;;4970109;28;20053;-47
2022/06/10 11:38:31;;;;;;;8.80;4.20;;;19.80;73.40;;;;;;4988782;28;20208;-47
2022/06/10 11:41:13;;;;;;;6.97;4.45;;;19.70;73.40;;;;;;4986636;28;20041;-45
2022/06/10 11:43:49;;;;;;;10.52;4.93;;;19.60;74.00;;;;;;4987589;28;20376;-45
2022/06/10 11:46:34;;;;;;;7.53;4.22;;;19.80;74.60;;;;;;4986444;28;20028;-44
2022/06/10 11:49:15;;;;;;;10.05;5.35;;;19.90;74.30;;;;;;4988616;28;20025;-47
2022/06/10 11:52:10;;;;;;;7.85;4.65;;;19.70;74.10;;;;;;4991371;28;20041;-44
2022/06/10 11:55:11;;;;;;;8.90;4.47;;;19.60;74.40;;;;;;5021686;28;20041;-44
2022/06/10 12:00:49;;;;;;;10.85;5.82;;;19.60;74.60;;;;;;5025545;28;20071;-44
2022/06/10 12:03:36;;;;;;;8.43;5.40;;;19.50;74.80;;;;;;5027958;28;20030;-43
2022/06/10 12:06:05;;;;;;;10.25;5.80;;;19.60;75.20;;;;;;5029345;28;20029;-43
2022/06/10 12:08:54;;;;;;;11.93;5.70;;;19.60;75.10;;;;;;5033822;28;20033;-45
2022/06/10 12:11:39;;;;;;;7.55;4.95;;;19.70;75.40;;;;;;5047968;28;20031;-45
2022/06/10 12:14:19;;;;;;;9.60;5.57;;;20.00;74.80;;;;;;5033509;28;20048;-46
2022/06/10 12:17:33;;;;;;;11.55;5.65;;;20.10;74.30;;;;;;5041144;28;20021;-43
2022/06/10 12:20:26;;;;;;;10.13;5.20;;;20.20;73.70;;;;;;5013786;28;20053;-45
2022/06/10 12:22:53;;;;;;;10.75;5.07;;;20.20;73.30;;;;;;5026102;28;20025;-44
2022/06/10 12:25:32;;;;;;;9.93;5.65;;;20.20;74.00;;;;;;5028488;28;20043;-44
2022/06/10 12:28:20;;;;;;;8.52;4.30;;;20.10;73.70;;;;;;5026500;28;20026;-44
2022/06/10 12:30:54;;;;;;;13.50;5.47;;;20.10;73.80;;;;;;5012209;28;20087;-46
2022/06/10 12:33:27;;;;;;;12.60;5.80;;;20.00;74.00;;;;;;5029197;28;21735;-43
2022/06/10 12:35:55;;;;;;;15.45;6.32;;;20.00;74.20;;;;;;5020742;28;20037;-45
2022/06/10 12:38:40;;;;;;;9.75;5.63;;;20.30;74.70;;;;;;5031085;28;20037;-43
2022/06/10 12:41:35;;;;;;;11.40;6.10;;;20.90;74.50;;;;;;5018545;28;20095;-45
2022/06/10 12:44:05;;;;;;;10.70;6.57;;;21.20;72.40;;;;;;5028550;28;20025;-44
2022/06/10 12:47:11;;;;;;;9.48;6.10;;;20.90;71.10;;;;;;5015223;28;20049;-44
2022/06/10 12:49:44;;;;;;;11.75;5.88;;;20.90;71.70;;;;;;4967427;28;20023;-48
2022/06/10 12:52:32;;;;;;;10.82;5.32;;;21.00;72.10;;;;;;4967477;28;20114;-44
2022/06/10 12:55:23;;;;;;;9.35;4.80;;;21.20;72.40;;;;;;4966976;28;20051;-44
2022/06/10 12:57:51;;;;;;;11.18;5.18;;;21.30;71.90;;;;;;4966373;28;20075;-44
2022/06/10 13:00:27;;;;;;;10.10;5.22;;;21.20;71.10;;;;;;4966584;28;20110;-44
2022/06/10 13:02:57;;;;;;;8.88;4.63;;;21.10;71.00;;;;;;4966623;28;20110;-45
2022/06/10 13:05:32;;;;;;;5.25;3.33;;;20.90;70.80;;;;;;4966799;28;20442;-44
2022/06/10 13:08:00;;;;;;;7.45;4.63;;;20.90;71.50;;;;;;4967087;28;20060;-44
2022/06/10 13:10:32;;;;;;;9.63;4.80;;;20.90;71.90;;;;;;4967642;28;20069;-45
2022/06/10 13:13:11;;;;;;;11.85;5.00;;;20.90;72.10;;;;;;4965533;28;20031;-47
2022/06/10 13:15:39;;;;;;;12.98;4.60;;;21.20;72.50;;;;;;4967983;28;20050;-44
2022/06/10 13:18:23;;;;;;;8.43;4.13;;;21.50;71.50;;;;;;4951000;28;20046;-44
2022/06/10 13:20:50;;;;;;;6.25;3.78;;;21.70;71.00;;;;;;4967016;28;20038;-45
2022/06/10 13:23:28;;;;;;;9.45;4.20;;;21.40;70.00;;;;;;4992761;28;20080;-44
2022/06/10 13:26:10;;;;;;;7.65;4.55;;;21.30;71.20;;;;;;5032317;28;20032;-47
2022/06/10 13:28:41;;;;;;;8.10;3.80;;;21.20;70.70;;;;;;5032771;28;20357;-44
2022/06/10 13:31:20;;;;;;;9.32;4.63;;;21.10;70.70;;;;;;5047490;28;20029;-45
2022/06/10 13:34:05;;;;;;;8.43;3.75;;;21.10;71.30;;;;;;5047352;28;20064;-44
2022/06/10 13:36:43;;;;;;;11.27;4.38;;;20.90;71.50;;;;;;5032011;28;20057;-43
2022/06/10 13:39:35;;;;;;;10.05;4.10;;;20.90;72.30;;;;;;5034603;28;20076;-46
2022/06/10 13:42:04;;;;;;;11.52;4.75;;;20.90;72.90;;;;;;5017234;28;20397;-44
2022/06/10 13:44:44;;;;;;;10.80;4.17;;;21.10;72.90;;;;;;5031410;28;20138;-45
2022/06/10 13:47:26;;;;;;;9.90;4.50;;;21.30;72.20;;;;;;5050575;28;20025;-45
2022/06/10 13:53:06;;;;;;;13.07;4.63;;;21.50;71.80;;;;;;5040939;28;20456;-45